Time;durP1;ratioP1;P1;durP2;ratioP2;P2;SDS_P1;SDS_P2;PMS_P1;PMS_P2;Temp;Humidity;BMP_temperature;BMP_pressure;BME280_temperature;BME280_humidity;BME280_pressure;Samples;Min_cycle;Max_cycle;Signal;HPM_P1;HPM_P2
2022/06/18 00:00:46;;;;;;;1.88;0.98;;;;;;;28.02;50.46;101199.34;4972807;28;20038;-70
2022/06/18 00:03:12;;;;;;;1.65;1.00;;;;;;;28.01;50.63;101198.53;4971718;28;20019;-70
2022/06/18 00:05:39;;;;;;;1.45;0.90;;;;;;;28.01;50.52;101203.09;4972969;28;20043;-73
2022/06/18 00:08:11;;;;;;;3.05;1.20;;;;;;;28.00;50.64;101204.94;4972986;28;20031;-71
2022/06/18 00:10:37;;;;;;;2.10;1.30;;;;;;;28.00;50.77;101196.09;4972758;28;20027;-71
2022/06/18 00:13:40;;;;;;;2.67;1.00;;;;;;;27.98;50.69;101204.38;4971508;28;20372;-71
2022/06/18 00:16:10;;;;;;;0.93;0.90;;;;;;;27.98;50.64;101198.22;4972651;28;20045;-71
2022/06/18 00:18:36;;;;;;;1.08;0.82;;;;;;;27.99;50.36;101206.00;4972675;28;20031;-71
2022/06/18 00:21:04;;;;;;;1.35;1.10;;;;;;;28.00;50.44;101204.94;4972705;28;20038;-71
2022/06/18 00:23:30;;;;;;;1.48;1.13;;;;;;;28.02;50.42;101199.34;4971469;28;20046;-71
2022/06/18 00:25:55;;;;;;;1.90;0.90;;;;;;;28.03;50.58;101200.97;4972382;28;20050;-70
2022/06/18 00:28:29;;;;;;;1.50;1.10;;;;;;;28.04;50.33;101199.91;4953635;28;20130;-71
2022/06/18 00:30:54;;;;;;;3.85;1.00;;;;;;;28.03;50.83;101198.28;4971986;28;20395;-72
2022/06/18 00:33:21;;;;;;;2.00;1.20;;;;;;;28.03;50.56;101203.66;4971739;28;20027;-71
2022/06/18 00:35:48;;;;;;;2.15;1.10;;;;;;;28.03;50.61;101200.97;4970792;28;20114;-71
2022/06/18 00:38:26;;;;;;;2.95;1.20;;;;;;;28.02;50.24;101202.84;4972139;28;20039;-70
2022/06/18 00:40:52;;;;;;;1.73;1.20;;;;;;;28.01;50.64;101195.84;4972110;28;20041;-71
2022/06/18 00:43:28;;;;;;;2.83;1.15;;;;;;;28.02;50.06;101200.16;4971110;28;20106;-71
2022/06/18 00:46:00;;;;;;;2.25;0.90;;;;;;;28.01;50.22;101193.19;4971885;28;20138;-70
2022/06/18 00:48:39;;;;;;;1.50;0.80;;;;;;;27.99;50.27;101178.41;4971891;28;20322;-71
2022/06/18 00:51:10;;;;;;;1.85;1.20;;;;;;;27.99;50.23;101176.53;4971959;28;20039;-72
2022/06/18 00:53:47;;;;;;;3.33;1.40;;;;;;;27.99;50.25;101178.41;4970924;28;20038;-70
2022/06/18 00:56:19;;;;;;;3.60;0.98;;;;;;;27.99;50.40;101173.06;4971847;28;20577;-73
2022/06/18 00:58:50;;;;;;;2.10;1.02;;;;;;;27.97;50.30;101173.28;4970823;28;20391;-71
2022/06/18 01:01:21;;;;;;;2.00;0.85;;;;;;;27.97;50.37;101173.28;4971622;28;20112;-71
2022/06/18 01:03:47;;;;;;;2.10;0.88;;;;;;;27.97;50.15;101181.31;4970483;28;20037;-72
2022/06/18 01:06:17;;;;;;;2.05;1.10;;;;;;;27.97;50.08;101172.47;4971720;28;20031;-72
2022/06/18 01:08:45;;;;;;;1.13;0.82;;;;;;;27.96;50.12;101171.66;4971438;28;20161;-70
2022/06/18 01:11:19;;;;;;;3.00;0.90;;;;;;;27.95;50.46;101162.00;4971770;28;20608;-70
2022/06/18 01:13:45;;;;;;;1.50;1.08;;;;;;;27.95;50.12;101164.69;4970467;28;20034;-71
2022/06/18 01:16:11;;;;;;;1.75;1.05;;;;;;;27.96;50.36;101165.50;4971854;28;20039;-71
2022/06/18 01:18:38;;;;;;;2.47;0.82;;;;;;;27.96;50.03;101166.31;4971504;28;20084;-70
2022/06/18 01:21:25;;;;;;;1.17;1.08;;;;;;;27.96;50.17;101162.81;4971630;28;20031;-70
2022/06/18 01:24:13;;;;;;;2.92;1.13;;;;;;;27.94;50.00;101162.25;4970605;28;20034;-72
2022/06/18 01:26:40;;;;;;;1.48;0.95;;;;;;;27.95;50.06;101161.19;4962072;28;20491;-70
2022/06/18 01:29:05;;;;;;;2.50;1.00;;;;;;;27.95;49.88;101156.66;4970351;28;20750;-71
2022/06/18 01:31:31;;;;;;;2.00;0.80;;;;;;;27.96;49.83;101162.81;4971171;28;20302;-72
2022/06/18 01:33:57;;;;;;;1.05;0.90;;;;;;;27.96;49.69;101152.09;4970034;28;20498;-71
2022/06/18 01:36:26;;;;;;;0.90;0.73;;;;;;;27.96;49.63;101155.59;4969075;28;20034;-70
2022/06/18 01:38:51;;;;;;;1.30;0.90;;;;;;;27.95;49.50;101159.34;4971101;28;20046;-70
2022/06/18 01:44:13;;;;;;;2.25;0.98;;;;;;;27.95;49.81;101156.66;4970785;28;20050;-72
2022/06/18 01:46:45;;;;;;;1.20;0.70;;;;;;;27.94;49.35;101160.38;4970500;28;20077;-71
2022/06/18 01:49:13;;;;;;;2.55;0.77;;;;;;;27.95;49.76;101151.28;4970687;28;20039;-72
2022/06/18 01:51:42;;;;;;;1.42;0.75;;;;;;;27.94;49.77;101155.03;4968979;28;20154;-72
2022/06/18 01:54:13;;;;;;;2.90;1.25;;;;;;;27.95;49.27;101155.84;4969855;28;20436;-72
2022/06/18 01:56:43;;;;;;;2.90;0.90;;;;;;;27.94;49.63;101149.69;4970646;28;20035;-72
2022/06/18 01:59:15;;;;;;;0.88;0.57;;;;;;;27.93;49.42;101158.75;4968800;28;20521;-70
2022/06/18 02:01:43;;;;;;;1.77;0.90;;;;;;;27.93;49.51;101155.28;4970482;28;20023;-71
2022/06/18 02:04:09;;;;;;;2.13;1.10;;;;;;;27.92;49.07;101151.78;4970409;28;20027;-72
2022/06/18 02:06:36;;;;;;;1.63;0.90;;;;;;;27.92;49.18;101148.28;4970635;28;20085;-71
2022/06/18 02:09:07;;;;;;;2.15;1.13;;;;;;;27.92;49.23;101156.31;4970155;28;20027;-71
2022/06/18 02:11:32;;;;;;;1.30;0.80;;;;;;;27.92;49.12;101143.75;4934106;29;20035;-71
2022/06/18 02:14:07;;;;;;;1.75;0.63;;;;;;;27.90;49.19;101147.72;4955423;28;20086;-71
2022/06/18 02:16:43;;;;;;;1.73;1.10;;;;;;;27.90;49.37;101153.88;4970638;28;20034;-71
2022/06/18 02:19:09;;;;;;;1.38;0.90;;;;;;;27.91;48.97;101154.69;4970520;28;20109;-70
2022/06/18 02:21:42;;;;;;;2.90;1.30;;;;;;;27.90;49.21;101148.53;4969090;28;20030;-72
2022/06/18 02:24:08;;;;;;;3.00;0.95;;;;;;;27.90;49.02;101145.03;4970305;28;20585;-72
2022/06/18 02:26:35;;;;;;;1.10;0.90;;;;;;;27.89;49.13;101141.56;4970197;28;20030;-72
2022/06/18 02:29:03;;;;;;;1.67;0.75;;;;;;;27.90;49.33;101153.06;4969701;28;20621;-70
2022/06/18 02:31:34;;;;;;;2.97;0.70;;;;;;;27.89;49.15;101146.91;4970261;28;20045;-71
2022/06/18 02:34:08;;;;;;;2.92;0.80;;;;;;;27.89;49.10;101143.41;4969014;28;20463;-72
2022/06/18 02:36:36;;;;;;;0.95;0.63;;;;;;;27.89;49.09;101141.56;4968766;28;20122;-70
2022/06/18 02:39:07;;;;;;;0.98;0.70;;;;;;;27.88;48.95;101141.81;4970036;28;20063;-71
2022/06/18 02:41:34;;;;;;;2.22;0.80;;;;;;;27.90;48.88;101142.38;4970264;28;20411;-73
2022/06/18 02:44:00;;;;;;;1.48;0.90;;;;;;;27.89;48.94;101144.22;4969222;28;20440;-71
2022/06/18 02:46:26;;;;;;;1.35;0.90;;;;;;;27.90;48.88;101145.03;4969786;28;20109;-72
2022/06/18 02:48:52;;;;;;;1.38;0.80;;;;;;;27.90;48.72;101143.19;4970008;28;20034;-70
2022/06/18 02:51:18;;;;;;;1.48;0.70;;;;;;;27.89;48.88;101141.56;4969839;28;20070;-72
2022/06/18 02:53:43;;;;;;;1.45;0.80;;;;;;;27.89;48.59;101141.56;4967996;28;20027;-72
2022/06/18 02:56:13;;;;;;;2.28;0.70;;;;;;;27.88;48.56;101139.97;4969737;28;20034;-72
2022/06/18 02:58:44;;;;;;;1.13;1.00;;;;;;;27.87;48.55;101132.97;4969876;28;20068;-72
2022/06/18 03:01:29;;;;;;;2.88;0.75;;;;;;;27.85;48.62;101140.44;4968754;28;20049;-72
2022/06/18 03:06:24;;;;;;;3.17;0.80;;;;;;;27.87;48.23;101148.25;5289459;22;20061;-71
2022/06/18 03:08:50;;;;;;;3.25;1.08;;;;;;;27.86;48.46;101135.91;5008740;28;20041;-71
2022/06/18 03:14:02;;;;;;;1.65;0.85;;;;;;;27.86;48.47;101142.06;5008826;28;20459;-72
2022/06/18 03:16:28;;;;;;;0.85;0.57;;;;;;;27.85;48.21;101145.81;5008662;28;20105;-72
2022/06/18 03:18:56;;;;;;;1.95;0.80;;;;;;;27.86;48.12;101143.94;5008661;28;20036;-70
2022/06/18 03:21:33;;;;;;;1.17;0.60;;;;;;;27.85;48.29;101145.81;5008527;28;20033;-70
2022/06/18 03:24:00;;;;;;;0.70;0.60;;;;;;;27.85;48.27;101145.00;5008272;28;20088;-72
2022/06/18 03:26:25;;;;;;;1.77;0.80;;;;;;;27.85;47.91;101145.81;5008696;28;20327;-71
2022/06/18 03:28:51;;;;;;;0.75;0.60;;;;;;;27.85;48.09;101145.00;5008275;28;20300;-72
2022/06/18 03:31:17;;;;;;;1.15;0.80;;;;;;;27.83;48.18;101142.56;5008721;28;20414;-72
2022/06/18 03:33:43;;;;;;;2.40;0.98;;;;;;;27.82;48.22;101138.25;5008347;28;20061;-71
2022/06/18 03:36:12;;;;;;;1.45;0.77;;;;;;;27.84;47.86;101140.69;5008464;28;20058;-71
2022/06/18 03:38:38;;;;;;;2.22;0.70;;;;;;;27.84;48.02;101143.38;5008374;28;20056;-70
2022/06/18 03:41:03;;;;;;;1.50;0.88;;;;;;;27.84;48.08;101129.97;5008390;28;20029;-71
2022/06/18 03:43:30;;;;;;;1.40;0.77;;;;;;;27.83;47.84;101139.88;5008232;28;20490;-71
2022/06/18 03:46:01;;;;;;;3.45;0.70;;;;;;;27.83;47.93;101145.22;5008637;28;20052;-72
2022/06/18 03:49:05;;;;;;;1.45;0.80;;;;;;;27.81;47.76;101144.66;5008652;28;20065;-71
2022/06/18 03:51:32;;;;;;;0.82;0.57;;;;;;;27.81;48.00;101141.97;5008039;28;20029;-72
2022/06/18 03:53:59;;;;;;;1.65;0.90;;;;;;;27.82;47.80;101154.31;5007881;28;20524;-72
2022/06/18 03:56:27;;;;;;;0.70;0.68;;;;;;;27.83;47.81;101155.94;5008700;28;20034;-71
2022/06/18 03:58:54;;;;;;;1.23;0.95;;;;;;;27.83;47.89;101147.91;5008397;28;20030;-72
2022/06/18 04:01:26;;;;;;;2.88;0.88;;;;;;;27.82;47.90;101148.97;5008887;28;20034;-72
2022/06/18 04:03:52;;;;;;;2.00;0.80;;;;;;;27.82;47.69;101146.28;5009695;28;20116;-70
2022/06/18 04:06:18;;;;;;;0.90;0.80;;;;;;;27.83;47.61;101153.25;5011429;28;20127;-70
2022/06/18 04:08:44;;;;;;;1.45;0.70;;;;;;;27.84;47.76;101149.53;5011628;28;20117;-71
2022/06/18 04:11:11;;;;;;;1.25;0.63;;;;;;;27.84;47.75;101154.06;5011907;28;20030;-72
2022/06/18 04:13:36;;;;;;;1.10;0.80;;;;;;;27.84;47.88;101149.53;5011456;28;20026;-72
2022/06/18 04:16:02;;;;;;;0.70;0.60;;;;;;;27.83;47.65;101153.25;5011717;28;20068;-73
2022/06/18 04:18:27;;;;;;;1.00;0.68;;;;;;;27.84;47.66;101154.06;5011520;28;20682;-71
2022/06/18 04:20:54;;;;;;;1.00;0.75;;;;;;;27.84;47.75;101140.69;5011230;28;20030;-71
2022/06/18 04:23:20;;;;;;;1.00;0.70;;;;;;;27.84;47.47;101138.00;5011433;28;20379;-72
2022/06/18 04:25:45;;;;;;;4.07;0.73;;;;;;;27.83;47.63;101137.19;5011669;28;20057;-71
2022/06/18 04:28:12;;;;;;;2.05;0.95;;;;;;;27.83;47.67;101142.56;5011275;28;20033;-72
2022/06/18 04:30:38;;;;;;;2.22;1.08;;;;;;;27.82;47.73;101145.47;5011169;28;20033;-72
2022/06/18 04:33:04;;;;;;;1.48;0.80;;;;;;;27.82;47.56;101146.28;5011122;28;20425;-71
2022/06/18 04:35:29;;;;;;;1.67;0.60;;;;;;;27.82;47.46;101154.31;5010949;28;20026;-71
2022/06/18 04:37:55;;;;;;;1.77;0.60;;;;;;;27.82;47.26;101148.16;5011021;28;20332;-70
2022/06/18 04:40:31;;;;;;;1.63;1.10;;;;;;;27.82;47.60;101150.81;4993538;28;20563;-72
2022/06/18 04:43:04;;;;;;;1.00;0.88;;;;;;;27.81;47.67;101151.88;5011205;28;20026;-71
2022/06/18 04:45:31;;;;;;;1.67;1.20;;;;;;;27.82;47.49;101150.81;5010999;28;20418;-71
2022/06/18 04:47:57;;;;;;;1.40;1.13;;;;;;;27.82;47.48;101146.28;5010890;28;20417;-71
2022/06/18 04:50:29;;;;;;;2.83;0.82;;;;;;;27.82;47.48;101145.47;5010603;28;20788;-71
2022/06/18 04:52:55;;;;;;;1.45;0.82;;;;;;;27.82;47.68;101154.31;5010903;28;20148;-71
2022/06/18 04:55:21;;;;;;;1.40;0.85;;;;;;;27.83;47.45;101161.28;5010518;28;20121;-71
2022/06/18 04:57:47;;;;;;;1.90;0.90;;;;;;;27.82;47.48;101159.66;5010604;28;20062;-70
2022/06/18 05:00:13;;;;;;;2.20;1.20;;;;;;;27.84;47.61;101165.59;5010890;28;20035;-71
2022/06/18 05:02:38;;;;;;;2.05;0.88;;;;;;;27.83;47.25;101169.31;5010281;28;20037;-70
2022/06/18 05:05:08;;;;;;;1.25;0.90;;;;;;;27.85;47.19;101171.75;5010348;28;20456;-71
2022/06/18 05:07:33;;;;;;;1.30;0.80;;;;;;;27.85;47.33;101182.47;5010477;28;20045;-72
2022/06/18 05:09:59;;;;;;;1.75;0.80;;;;;;;27.85;47.34;101185.16;5010339;28;20037;-71
2022/06/18 05:12:24;;;;;;;2.35;1.00;;;;;;;27.84;47.11;101184.34;5010327;28;20026;-71
2022/06/18 05:14:50;;;;;;;2.88;1.00;;;;;;;27.84;47.19;101184.34;5009588;28;20038;-72
2022/06/18 05:17:24;;;;;;;3.58;0.88;;;;;;;27.82;46.93;101175.72;5009657;28;20105;-72
2022/06/18 05:19:50;;;;;;;1.40;0.88;;;;;;;27.82;47.19;101177.59;5010209;28;20038;-72
2022/06/18 05:22:16;;;;;;;4.05;1.17;;;;;;;27.84;46.86;101175.50;5010292;28;20037;-71
2022/06/18 05:24:41;;;;;;;1.83;0.80;;;;;;;27.83;46.75;101185.38;5010093;28;20025;-72
2022/06/18 05:27:28;;;;;;;1.35;1.13;;;;;;;27.82;46.46;101188.31;5009789;28;20030;-71
2022/06/18 05:29:55;;;;;;;3.00;1.05;;;;;;;27.81;46.38;101200.06;5010126;28;20026;-72
2022/06/18 05:32:20;;;;;;;2.30;1.40;;;;;;;27.81;46.42;101200.06;5010409;28;20102;-72
2022/06/18 05:34:46;;;;;;;2.45;1.13;;;;;;;27.80;46.18;101195.78;5009896;28;20099;-72
2022/06/18 05:37:18;;;;;;;4.38;1.70;;;;;;;27.80;46.23;101206.47;5009898;28;20090;-71
2022/06/18 05:39:44;;;;;;;2.92;1.73;;;;;;;27.80;46.24;101212.66;5009777;28;20119;-71
2022/06/18 05:42:10;;;;;;;2.25;1.33;;;;;;;27.79;45.84;101205.66;5010158;28;20485;-70
2022/06/18 05:44:36;;;;;;;1.40;0.95;;;;;;;27.78;45.83;101201.38;5009613;28;20037;-72
2022/06/18 05:47:09;;;;;;;1.63;1.17;;;;;;;27.80;45.84;101204.63;5009380;28;20363;-72
2022/06/18 05:49:35;;;;;;;2.38;0.68;;;;;;;27.79;45.74;101205.66;5009974;28;20034;-70
2022/06/18 05:52:00;;;;;;;1.42;0.82;;;;;;;27.79;45.85;101205.66;5009722;28;20468;-71
2022/06/18 05:54:25;;;;;;;1.60;0.60;;;;;;;27.80;45.73;101214.50;5007449;28;20474;-71
2022/06/18 05:56:51;;;;;;;5.85;1.08;;;;;;;27.80;46.14;101206.47;5008027;28;20083;-73
2022/06/18 05:59:16;;;;;;;1.30;0.75;;;;;;;27.80;45.67;101209.97;5009631;28;20034;-72
2022/06/18 06:01:42;;;;;;;1.52;0.82;;;;;;;27.81;46.07;101205.44;5008515;28;20033;-72
2022/06/18 06:04:07;;;;;;;1.95;0.77;;;;;;;27.81;45.69;101210.78;5010466;28;20025;-71
2022/06/18 06:06:32;;;;;;;1.63;1.08;;;;;;;27.81;45.60;101208.91;5013021;28;20521;-70
2022/06/18 06:08:58;;;;;;;2.97;0.77;;;;;;;27.82;45.66;101204.38;5027400;28;20029;-72
2022/06/18 06:11:29;;;;;;;1.63;0.60;;;;;;;27.82;45.75;101215.91;5023666;28;20030;-71
2022/06/18 06:13:59;;;;;;;1.88;0.70;;;;;;;27.82;45.40;101215.91;5009342;28;20038;-72
2022/06/18 06:16:26;;;;;;;2.22;0.70;;;;;;;27.81;45.54;101224.97;5009542;28;20044;-71
2022/06/18 06:18:51;;;;;;;1.05;0.80;;;;;;;27.80;45.17;101226.03;5009101;28;20037;-73
2022/06/18 06:21:18;;;;;;;1.33;0.65;;;;;;;27.80;45.34;101223.34;5009339;28;20034;-72
2022/06/18 06:23:43;;;;;;;1.08;0.60;;;;;;;27.80;45.12;101228.72;5009161;28;20149;-74
2022/06/18 06:26:25;;;;;;;1.95;0.80;;;;;;;27.79;45.12;101231.63;5008694;28;20086;-71
2022/06/18 06:28:50;;;;;;;2.63;0.80;;;;;;;27.79;45.33;101226.28;5008690;28;20026;-73
2022/06/18 06:31:16;;;;;;;1.25;0.90;;;;;;;27.77;45.15;101231.88;5009023;28;20092;-74
2022/06/18 06:33:42;;;;;;;1.58;0.80;;;;;;;27.78;45.07;101230.81;5008814;28;20040;-74
2022/06/18 06:36:10;;;;;;;2.17;0.70;;;;;;;27.77;45.30;101229.19;5008571;28;20041;-73
2022/06/18 06:38:37;;;;;;;2.00;1.52;;;;;;;27.77;44.82;101223.84;4990978;28;20032;-73
2022/06/18 06:41:06;;;;;;;2.33;1.23;;;;;;;27.77;44.58;101229.19;5008815;28;20076;-71
2022/06/18 06:43:31;;;;;;;2.00;0.95;;;;;;;27.76;44.87;101230.25;5008832;28;20026;-74
2022/06/18 06:45:57;;;;;;;1.45;0.60;;;;;;;27.76;44.72;101232.91;5008809;28;20018;-73
2022/06/18 06:48:22;;;;;;;3.40;1.08;;;;;;;27.75;44.95;101231.28;5008867;28;20390;-71
2022/06/18 06:50:50;;;;;;;1.52;0.93;;;;;;;27.75;44.57;101232.09;5008704;28;20032;-70
2022/06/18 06:53:16;;;;;;;2.55;0.80;;;;;;;27.75;44.94;101225.94;5009069;28;20033;-71
2022/06/18 06:58:26;;;;;;;1.77;0.80;;;;;;;27.76;44.80;101227.56;5008929;28;20045;-74
2022/06/18 07:00:54;;;;;;;1.73;0.77;;;;;;;27.76;44.95;101222.22;5008833;28;20018;-73
2022/06/18 07:03:32;;;;;;;2.88;0.93;;;;;;;27.75;44.86;101225.94;5008403;28;20046;-70
2022/06/18 07:05:59;;;;;;;5.18;1.20;;;;;;;27.73;44.83;101228.84;5008248;28;20070;-71
2022/06/18 07:08:25;;;;;;;3.33;1.13;;;;;;;27.76;44.92;101219.53;5008818;28;20091;-72
2022/06/18 07:10:50;;;;;;;6.28;1.38;;;;;;;27.78;44.65;101225.47;5008908;28;20030;-72
2022/06/18 07:13:18;;;;;;;3.42;1.20;;;;;;;27.82;44.33;101217.75;5008743;28;20034;-72
2022/06/18 07:15:44;;;;;;;6.32;1.60;;;;;;;27.89;44.24;101221.88;5008689;28;20073;-74
2022/06/18 07:18:15;;;;;;;4.45;1.23;;;;;;;27.94;44.40;101216.63;5007778;28;20484;-74
2022/06/18 07:20:40;;;;;;;2.53;1.10;;;;;;;27.91;44.03;101214.44;5009010;28;20034;-72
2022/06/18 07:23:06;;;;;;;2.38;0.80;;;;;;;27.86;44.05;101211.69;5008981;28;20033;-72
2022/06/18 07:25:31;;;;;;;4.13;0.80;;;;;;;27.85;44.26;101215.41;5008574;28;20525;-69
2022/06/18 07:27:57;;;;;;;2.80;0.95;;;;;;;27.84;44.92;101208.44;5011630;28;20022;-72
2022/06/18 07:30:22;;;;;;;5.53;1.50;;;;;;;27.84;45.15;101208.44;5008692;28;20061;-73
2022/06/18 07:32:49;;;;;;;2.22;0.80;;;;;;;27.85;45.11;101204.72;5008105;28;20061;-71
2022/06/18 07:35:24;;;;;;;3.88;0.82;;;;;;;27.84;45.72;101202.28;5008415;28;20061;-74
2022/06/18 07:37:49;;;;;;;6.00;1.00;;;;;;;27.84;45.15;101202.28;5008342;28;20108;-73
2022/06/18 07:40:16;;;;;;;4.75;0.90;;;;;;;27.82;45.50;101205.19;5011029;28;20053;-73
2022/06/18 07:42:43;;;;;;;2.75;0.75;;;;;;;27.82;44.92;101197.16;5011419;28;20497;-74
2022/06/18 07:45:20;;;;;;;3.60;0.68;;;;;;;27.79;43.90;101194.97;5011234;28;20108;-74
2022/06/18 07:47:47;;;;;;;1.85;0.60;;;;;;;27.78;44.04;101198.69;5010856;28;20134;-73
2022/06/18 07:50:14;;;;;;;1.38;0.70;;;;;;;27.79;44.22;101188.78;5010726;28;20036;-74
2022/06/18 07:52:40;;;;;;;7.82;0.85;;;;;;;27.76;44.30;101195.44;5010884;28;20485;-72
2022/06/18 07:55:07;;;;;;;6.05;1.00;;;;;;;27.73;43.98;101186.03;5010833;28;20026;-73
2022/06/18 07:57:32;;;;;;;1.45;0.88;;;;;;;27.72;43.59;101184.41;5011226;28;20151;-71
2022/06/18 07:59:58;;;;;;;1.77;0.63;;;;;;;27.71;43.21;101185.44;5011918;28;20480;-73
2022/06/18 08:02:24;;;;;;;4.38;0.70;;;;;;;27.71;43.03;101184.63;5011731;28;20079;-74
2022/06/18 08:04:50;;;;;;;1.77;0.90;;;;;;;27.69;42.98;101178.72;5010493;28;20030;-73
2022/06/18 08:07:15;;;;;;;3.65;0.70;;;;;;;27.69;43.16;101179.53;5010239;28;20402;-72
2022/06/18 08:09:41;;;;;;;2.65;0.75;;;;;;;27.70;42.76;101181.16;5010195;28;20026;-71
2022/06/18 08:12:07;;;;;;;2.60;0.60;;;;;;;27.70;42.81;101181.16;5009063;28;20117;-73
2022/06/18 08:14:32;;;;;;;4.15;0.70;;;;;;;27.69;41.92;101184.06;5000797;28;20116;-74
2022/06/18 08:16:58;;;;;;;2.78;0.90;;;;;;;27.66;42.09;101177.31;5010423;28;20037;-72
2022/06/18 08:19:24;;;;;;;1.67;0.60;;;;;;;27.65;41.56;101180.25;5010416;28;20413;-73
2022/06/18 08:21:49;;;;;;;1.15;0.68;;;;;;;27.63;41.09;101177.81;5011312;28;20101;-74
2022/06/18 08:24:19;;;;;;;1.58;0.73;;;;;;;27.61;40.88;101184.44;5009004;28;20101;-71
2022/06/18 08:26:45;;;;;;;2.35;0.70;;;;;;;27.62;40.65;101172.69;5010555;28;20378;-72
2022/06/18 08:29:15;;;;;;;4.97;0.90;;;;;;;27.64;41.09;101178.63;5010431;28;20057;-73
2022/06/18 08:31:40;;;;;;;1.15;0.55;;;;;;;27.62;40.65;101164.66;5009464;28;20033;-73
2022/06/18 08:34:05;;;;;;;2.95;0.88;;;;;;;27.59;40.98;101168.63;5009741;28;20034;-71
2022/06/18 08:36:32;;;;;;;1.23;0.60;;;;;;;27.61;41.24;101165.72;5009475;28;20510;-72
2022/06/18 08:38:58;;;;;;;3.80;1.00;;;;;;;27.61;41.24;101166.53;5006979;28;20040;-71
2022/06/18 08:41:26;;;;;;;3.67;1.20;;;;;;;27.61;41.42;101163.03;5007969;28;20090;-73
2022/06/18 08:44:04;;;;;;;1.15;0.80;;;;;;;27.61;41.28;101165.72;5021762;22;20054;-70
2022/06/18 08:46:51;;;;;;;1.38;0.60;;;;;;;27.59;40.91;101162.47;4985676;28;20038;-73
2022/06/18 08:49:36;;;;;;;3.08;1.02;;;;;;;27.59;41.23;101157.09;4990237;28;20142;-71
2022/06/18 08:52:21;;;;;;;2.40;0.88;;;;;;;27.58;40.94;101160.81;4989065;28;20117;-71
2022/06/18 08:54:49;;;;;;;2.78;0.75;;;;;;;27.58;41.12;101155.44;4989900;28;20035;-73
2022/06/18 08:57:24;;;;;;;2.67;1.00;;;;;;;27.59;40.76;101154.44;4988399;28;20049;-72
2022/06/18 09:00:07;;;;;;;6.25;0.85;;;;;;;27.58;40.82;101150.91;4992249;28;20029;-72
2022/06/18 09:02:38;;;;;;;3.10;0.70;;;;;;;27.59;40.63;101151.75;4993269;28;20046;-71
2022/06/18 09:05:31;;;;;;;0.98;0.85;;;;;;;27.57;40.02;101143.13;4989943;28;20125;-72
2022/06/18 09:08:21;;;;;;;5.18;0.75;;;;;;;27.59;39.99;101133.03;4991808;28;20030;-71
2022/06/18 09:10:59;;;;;;;0.85;0.63;;;;;;;27.59;40.09;101136.50;4994957;28;20081;-71
2022/06/18 09:13:30;;;;;;;3.03;0.63;;;;;;;27.62;40.50;101136.03;4992765;28;20547;-73
2022/06/18 09:16:00;;;;;;;3.47;0.60;;;;;;;27.65;40.73;101137.41;4992929;28;20593;-74
2022/06/18 09:18:45;;;;;;;5.15;1.20;;;;;;;27.66;43.49;101139.03;4992731;28;20037;-72
2022/06/18 09:21:26;;;;;;;3.15;0.98;;;;;;;27.66;42.33;101134.50;4989940;28;20046;-73
2022/06/18 09:24:00;;;;;;;1.38;0.70;;;;;;;27.66;42.08;101128.31;4990763;28;20394;-72
2022/06/18 09:26:39;;;;;;;2.10;1.10;;;;;;;27.65;41.55;101135.53;4988361;28;20375;-74
2022/06/18 09:29:08;;;;;;;1.77;0.80;;;;;;;27.66;41.36;101136.34;4988850;28;20039;-71
2022/06/18 09:31:48;;;;;;;3.45;0.93;;;;;;;27.62;40.50;101136.03;4990141;28;20034;-73
2022/06/18 09:34:29;;;;;;;4.13;0.90;;;;;;;27.60;40.61;101137.31;4988210;28;20022;-71
2022/06/18 09:37:01;;;;;;;2.05;0.85;;;;;;;27.61;40.54;101129.03;4980072;28;20382;-71
2022/06/18 09:39:40;;;;;;;1.95;0.85;;;;;;;27.60;40.32;101131.97;4988056;28;20026;-71
2022/06/18 09:42:20;;;;;;;4.35;1.23;;;;;;;27.56;40.10;101125.44;4990189;28;20042;-71
2022/06/18 09:45:06;;;;;;;1.42;0.88;;;;;;;27.55;40.04;101131.84;4989927;28;20055;-72
2022/06/18 09:47:39;;;;;;;2.08;0.52;;;;;;;27.56;39.82;101122.75;4988636;28;20470;-73
2022/06/18 09:50:26;;;;;;;2.58;0.63;;;;;;;27.57;39.69;101124.38;4986155;28;20030;-70
2022/06/18 09:53:00;;;;;;;1.42;0.60;;;;;;;27.60;39.79;101124.75;4987852;28;20046;-72
2022/06/18 09:55:46;;;;;;;2.38;0.80;;;;;;;27.58;39.58;101120.66;4988098;28;20074;-72
2022/06/18 09:58:17;;;;;;;2.83;0.93;;;;;;;27.60;39.97;101110.56;4986776;28;20048;-75
2022/06/18 10:00:44;;;;;;;2.30;0.75;;;;;;;27.60;39.87;101107.88;4988555;28;20413;-71
2022/06/18 10:09:02;;;;;;;1.00;0.60;;;;;;;27.60;39.51;101110.56;4987318;28;20410;-73
2022/06/18 10:11:27;;;;;;;2.85;0.80;;;;;;;27.60;39.57;101110.56;4989613;28;20118;-74
2022/06/18 10:14:15;;;;;;;3.45;0.90;;;;;;;27.60;39.36;101102.53;4988529;28;20117;-70
2022/06/18 10:17:11;;;;;;;1.73;0.57;;;;;;;27.60;39.02;101108.69;4987293;28;20057;-73
2022/06/18 10:20:14;;;;;;;1.60;0.85;;;;;;;27.60;38.95;101105.19;4987104;28;20042;-72
2022/06/18 10:22:54;;;;;;;1.63;0.50;;;;;;;27.61;39.28;101102.28;4987870;28;20025;-71
2022/06/18 10:25:43;;;;;;;2.13;0.70;;;;;;;27.63;39.00;101094.81;4988094;28;20052;-72
2022/06/18 10:28:37;;;;;;;3.47;0.68;;;;;;;27.63;39.28;101094.00;4988682;28;20057;-71
2022/06/18 10:31:30;;;;;;;1.85;0.50;;;;;;;27.63;39.38;101094.00;4988378;28;20037;-72
2022/06/18 10:34:21;;;;;;;2.78;0.60;;;;;;;27.67;39.27;101090.59;4989118;28;20056;-74
2022/06/18 10:36:49;;;;;;;1.73;0.68;;;;;;;27.68;39.06;101088.75;4980753;28;20042;-73
2022/06/18 10:39:39;;;;;;;1.63;1.08;;;;;;;27.70;38.97;101087.44;4987732;28;20062;-73
2022/06/18 10:42:05;;;;;;;1.65;0.70;;;;;;;27.73;39.10;101078.94;4990801;28;20033;-74
2022/06/18 10:44:30;;;;;;;1.25;0.57;;;;;;;27.76;38.93;101083.00;4987430;28;20120;-73
2022/06/18 10:47:05;;;;;;;1.35;0.40;;;;;;;27.76;38.89;101083.00;4987814;28;20508;-75
2022/06/18 10:49:31;;;;;;;;;;;;;;;27.69;38.73;101076.97;4987641;28;20053;-72
2022/06/18 10:51:57;;;;;;;2.25;0.98;;;;;;;27.69;38.97;101067.09;4987011;28;19949;-72
2022/06/18 10:54:35;;;;;;;1.52;0.52;;;;;;;27.71;38.47;101067.66;4986581;28;20038;-72
2022/06/18 10:57:01;;;;;;;2.55;0.50;;;;;;;27.75;38.67;101059.94;4990700;28;20041;-74
2022/06/18 10:59:38;;;;;;;2.28;0.60;;;;;;;27.76;38.49;101061.56;4988102;28;20038;-70
2022/06/18 11:02:17;;;;;;;1.75;0.60;;;;;;;27.76;38.56;101061.56;4988360;28;20447;-70
2022/06/18 11:04:52;;;;;;;0.98;0.40;;;;;;;27.77;38.39;101057.84;4986212;28;20022;-74
2022/06/18 11:07:20;;;;;;;;;;;;;;;27.73;38.13;101054.03;4988342;28;20121;-73
2022/06/18 11:09:45;;;;;;;1.40;0.60;;;;;;;27.76;38.62;101056.22;4987484;28;20366;-73
2022/06/18 11:12:34;;;;;;;1.92;0.60;;;;;;;27.80;38.84;101056.53;4991534;28;20026;-70
2022/06/18 11:15:01;;;;;;;2.30;0.60;;;;;;;27.84;38.43;101052.34;4990703;28;20445;-70
2022/06/18 11:17:32;;;;;;;0.93;0.52;;;;;;;27.86;38.67;101055.56;4991345;28;20027;-71
2022/06/18 11:20:17;;;;;;;3.20;0.90;;;;;;;27.86;38.58;101056.38;4979794;28;20030;-72
2022/06/18 11:22:44;;;;;;;2.08;0.60;;;;;;;27.90;38.22;101060.16;4991197;28;20092;-71
2022/06/18 11:25:24;;;;;;;3.17;0.60;;;;;;;27.88;38.28;101048.91;4989950;28;20030;-73
2022/06/18 11:27:55;;;;;;;1.77;0.65;;;;;;;27.89;38.20;101050.50;4988135;28;20045;-74
2022/06/18 11:30:29;;;;;;;1.52;0.43;;;;;;;27.88;38.35;101046.25;4991264;28;20246;-73
2022/06/18 11:32:55;;;;;;;3.75;0.70;;;;;;;27.89;38.43;101047.03;4990719;28;20081;-74
2022/06/18 11:35:20;;;;;;;1.52;0.50;;;;;;;27.90;38.05;101043.28;4980788;28;20387;-70
2022/06/18 11:37:59;;;;;;;1.35;0.40;;;;;;;27.88;38.00;101030.19;4989696;28;20022;-73
2022/06/18 11:40:25;;;;;;;1.80;0.60;;;;;;;27.94;38.24;101039.06;4988674;28;20390;-71
2022/06/18 11:42:59;;;;;;;3.40;0.70;;;;;;;27.96;38.33;101039.63;4994198;28;20498;-72
2022/06/18 11:45:39;;;;;;;1.83;0.60;;;;;;;27.94;38.50;101026.50;4992034;28;20462;-71
2022/06/18 11:48:23;;;;;;;3.28;0.70;;;;;;;27.97;38.65;101026.00;4985618;28;20030;-73
2022/06/18 11:50:56;;;;;;;0.98;0.63;;;;;;;28.03;38.54;101013.50;4983024;28;20042;-73
2022/06/18 11:53:35;;;;;;;1.20;0.60;;;;;;;28.05;38.01;101014.06;4999078;28;20030;-72
2022/06/18 11:56:04;;;;;;;6.15;1.25;;;;;;;28.03;37.99;101013.50;4990857;28;20646;-71
2022/06/18 11:58:36;;;;;;;1.35;0.60;;;;;;;28.02;38.25;101007.31;4995829;28;20034;-71